Bridge of Orchy, United Kingdom
Current Conditions -  °F | °C
As of 11:50 AM on Sunday 23 Nov 2014 (Local Time) from EGPF Reporting Station
Few Clouds Few Clouds  
Wind Chill: 45°   Ceiling: Unl
Heat Index: 45°   Visibility: 6mi
Dew Point: 39°   Wind: 1mph
Humidity: 81%   Direction: 200°SSW
Pressure: 30.03"   Gusts: NA
Location:  56.49°N, 4.8°W
Report Text: EGPF 231150Z AUTO 20001KT 9999 FEW040 07/04 Q1017
Loading
Personal Weather Stations






























Interactive Weather Map New forecast layout! Learn more

10-Day Weather Forecast

Advertisements
Track Severe Weather on mobile